Time;durP1;ratioP1;P1;durP2;ratioP2;P2;SDS_P1;SDS_P2;PMS_P1;PMS_P2;Temp;Humidity;BMP_temperature;BMP_pressure;BME280_temperature;BME280_humidity;BME280_pressure;Samples;Min_cycle;Max_cycle;Signal;HPM_P1;HPM_P2
2023/08/28 00:00:38;;;;;;;2.17;1.10;;;15.70;75.50;;;;;;4917859;29;20046;-75
2023/08/28 00:03:04;;;;;;;3.80;1.10;;;15.60;75.40;;;;;;4903416;29;20519;-75
2023/08/28 00:05:30;;;;;;;4.05;1.50;;;15.60;75.40;;;;;;4916651;29;20045;-75
2023/08/28 00:07:56;;;;;;;1.73;1.08;;;15.60;75.50;;;;;;4916107;29;20439;-75
2023/08/28 00:10:23;;;;;;;1.92;0.90;;;15.60;75.50;;;;;;4916285;29;20052;-75
2023/08/28 00:12:48;;;;;;;1.67;1.00;;;15.60;75.60;;;;;;4884235;29;20488;-75
2023/08/28 00:15:14;;;;;;;3.05;1.05;;;15.60;75.70;;;;;;4915775;29;20051;-75
2023/08/28 00:17:40;;;;;;;2.38;0.95;;;15.60;75.70;;;;;;4907947;29;20079;-75
2023/08/28 00:20:09;;;;;;;3.20;1.30;;;15.60;75.80;;;;;;4915765;29;20048;-75
2023/08/28 00:22:36;;;;;;;3.55;1.10;;;15.60;76.00;;;;;;4914312;29;20445;-75
2023/08/28 00:25:04;;;;;;;1.65;0.98;;;15.60;76.10;;;;;;4915513;29;20056;-75
2023/08/28 00:27:30;;;;;;;2.95;1.00;;;15.60;76.10;;;;;;4916221;29;20092;-75
2023/08/28 00:29:56;;;;;;;3.22;0.88;;;15.60;76.00;;;;;;4884603;29;20461;-76
2023/08/28 00:32:21;;;;;;;2.15;0.80;;;15.60;76.10;;;;;;4913496;29;20048;-75
2023/08/28 00:34:47;;;;;;;4.05;1.55;;;15.60;76.10;;;;;;4909552;29;20040;-75
2023/08/28 00:37:13;;;;;;;1.73;0.80;;;15.60;76.10;;;;;;4915752;29;20161;-75
2023/08/28 00:39:38;;;;;;;2.25;0.90;;;15.60;76.10;;;;;;4915838;29;20130;-75
2023/08/28 00:42:05;;;;;;;3.67;1.33;;;15.60;76.00;;;;;;4890402;29;20127;-75
2023/08/28 00:44:31;;;;;;;2.90;1.20;;;15.60;76.00;;;;;;4899986;29;20503;-75
2023/08/28 00:46:58;;;;;;;2.20;1.30;;;15.60;75.90;;;;;;4915889;29;20052;-75
2023/08/28 00:49:24;;;;;;;2.38;1.10;;;15.60;75.80;;;;;;4890493;29;20481;-75
2023/08/28 00:51:50;;;;;;;1.88;1.00;;;15.60;75.70;;;;;;4884414;29;20127;-75
2023/08/28 00:54:16;;;;;;;1.88;0.80;;;15.60;75.70;;;;;;4904902;29;20074;-75
2023/08/28 00:56:42;;;;;;;1.70;1.00;;;15.50;75.60;;;;;;4900129;29;20044;-75
2023/08/28 00:59:08;;;;;;;1.30;0.63;;;15.50;75.60;;;;;;4915581;29;20063;-75
2023/08/28 01:01:34;;;;;;;1.40;0.90;;;15.50;75.60;;;;;;4899714;29;20048;-75
2023/08/28 01:04:00;;;;;;;1.73;0.75;;;15.50;75.50;;;;;;4905760;29;20099;-75
2023/08/28 01:07:13;;;;;;;1.45;1.02;;;15.50;75.50;;;;;;4916987;29;20052;-75
2023/08/28 01:09:48;;;;;;;1.50;0.80;;;15.50;75.20;;;;;;4932229;29;20122;-75
2023/08/28 01:12:20;;;;;;;4.15;1.15;;;15.50;75.40;;;;;;4915561;29;20071;-75
2023/08/28 01:14:51;;;;;;;2.55;0.93;;;15.50;75.30;;;;;;4934685;29;20044;-75
2023/08/28 01:17:20;;;;;;;2.67;1.00;;;15.40;75.30;;;;;;4934511;29;20050;-75
2023/08/28 01:19:47;;;;;;;1.77;0.80;;;15.40;75.20;;;;;;4932709;29;20058;-75
2023/08/28 01:22:31;;;;;;;1.80;0.70;;;15.40;75.10;;;;;;4924730;29;20396;-75
2023/08/28 01:25:24;;;;;;;2.05;0.90;;;15.40;75.10;;;;;;4931344;29;20484;-75
2023/08/28 01:27:52;;;;;;;2.22;0.90;;;15.50;74.90;;;;;;4918569;29;20051;-75
2023/08/28 01:30:18;;;;;;;2.22;1.17;;;15.50;75.00;;;;;;4934513;29;20494;-75
2023/08/28 01:32:45;;;;;;;2.80;0.98;;;15.40;74.80;;;;;;4930498;29;20054;-75
2023/08/28 01:35:29;;;;;;;3.95;1.42;;;15.40;74.70;;;;;;4919974;29;20055;-75
2023/08/28 01:37:55;;;;;;;;;;;15.40;74.10;;;;;;4926499;29;20047;-75
2023/08/28 01:40:26;;;;;;;1.60;0.70;;;15.30;73.50;;;;;;4915060;29;19925;-75
2023/08/28 01:42:53;;;;;;;0.90;0.70;;;15.20;74.00;;;;;;4919029;29;20040;-75
2023/08/28 01:45:20;;;;;;;3.50;1.20;;;15.20;74.10;;;;;;4899288;29;20155;-75
2023/08/28 01:47:46;;;;;;;2.10;1.58;;;15.20;74.30;;;;;;4918467;29;20092;-75
2023/08/28 01:50:12;;;;;;;2.35;1.33;;;15.10;74.30;;;;;;4903219;29;20547;-75
2023/08/28 01:52:38;;;;;;;2.85;1.30;;;15.10;74.40;;;;;;4905273;29;20416;-75
2023/08/28 01:55:04;;;;;;;2.45;1.00;;;15.10;74.50;;;;;;4902782;29;20433;-75
2023/08/28 01:57:29;;;;;;;3.22;2.13;;;15.00;74.50;;;;;;4920600;29;20051;-75
2023/08/28 01:59:55;;;;;;;3.75;2.22;;;15.00;74.60;;;;;;4937830;29;20047;-75
2023/08/28 02:02:21;;;;;;;3.55;2.50;;;14.90;74.60;;;;;;4936808;29;20519;-75
2023/08/28 02:04:47;;;;;;;3.60;2.20;;;14.90;75.00;;;;;;4931320;29;20039;-75
2023/08/28 02:07:13;;;;;;;4.05;1.75;;;14.90;74.90;;;;;;4906523;29;20075;-75
2023/08/28 02:09:38;;;;;;;3.63;1.90;;;14.80;75.10;;;;;;4937620;29;20124;-75
2023/08/28 02:12:05;;;;;;;3.90;1.75;;;14.80;75.30;;;;;;4920686;29;20047;-75
2023/08/28 02:14:32;;;;;;;2.67;2.00;;;14.80;75.50;;;;;;4928094;29;20048;-75
2023/08/28 02:16:57;;;;;;;4.28;2.00;;;14.70;75.70;;;;;;4921450;29;20040;-75
2023/08/28 02:19:23;;;;;;;3.17;2.00;;;14.70;75.90;;;;;;4914679;29;20396;-75
2023/08/28 02:21:49;;;;;;;2.85;1.90;;;14.70;76.10;;;;;;4930357;29;20123;-75
2023/08/28 02:24:14;;;;;;;5.63;2.17;;;14.70;76.30;;;;;;4918568;29;20096;-75
2023/08/28 02:26:40;;;;;;;5.13;2.88;;;14.70;76.40;;;;;;4902408;29;20036;-75
2023/08/28 02:29:06;;;;;;;3.85;1.67;;;14.70;76.60;;;;;;4918048;29;20048;-75
2023/08/28 02:31:31;;;;;;;3.05;2.47;;;14.70;76.70;;;;;;4924612;29;20048;-75
2023/08/28 02:33:57;;;;;;;3.88;1.75;;;14.70;76.80;;;;;;4926530;29;20075;-75
2023/08/28 02:36:23;;;;;;;2.28;1.52;;;14.70;76.90;;;;;;4902465;29;20050;-75
2023/08/28 02:38:49;;;;;;;5.45;3.15;;;14.70;77.00;;;;;;4918182;29;20048;-75
2023/08/28 02:41:14;;;;;;;2.60;1.80;;;14.70;77.10;;;;;;4917980;29;20411;-75
2023/08/28 02:43:40;;;;;;;4.70;2.83;;;14.70;77.20;;;;;;4928272;29;20038;-75
2023/08/28 02:46:06;;;;;;;4.18;2.53;;;14.60;77.20;;;;;;4936690;29;20469;-75
2023/08/28 02:48:31;;;;;;;3.92;1.90;;;14.60;77.20;;;;;;4903854;29;20047;-75
2023/08/28 02:50:57;;;;;;;3.95;2.40;;;14.60;77.30;;;;;;4918941;29;20110;-75
2023/08/28 02:53:23;;;;;;;3.15;2.10;;;14.60;77.40;;;;;;4909574;29;20125;-75
2023/08/28 02:56:16;;;;;;;1.95;1.40;;;14.60;77.50;;;;;;4936654;29;20044;-75
2023/08/28 02:58:42;;;;;;;3.22;2.38;;;14.60;77.50;;;;;;4936770;29;20039;-75
2023/08/28 03:01:08;;;;;;;2.60;1.65;;;14.60;77.50;;;;;;4930611;29;20516;-75
2023/08/28 03:03:34;;;;;;;3.95;2.15;;;14.60;77.50;;;;;;4925489;29;20047;-75
2023/08/28 03:06:01;;;;;;;2.00;1.48;;;14.60;77.50;;;;;;4921021;29;20051;-75
2023/08/28 03:08:29;;;;;;;4.35;2.75;;;14.60;77.50;;;;;;4923231;29;20475;-74
2023/08/28 03:10:55;;;;;;;2.80;2.10;;;14.60;77.50;;;;;;4937759;29;20394;-75
2023/08/28 03:13:20;;;;;;;2.38;1.52;;;14.60;77.40;;;;;;4920378;29;20044;-75
2023/08/28 03:15:46;;;;;;;4.60;2.05;;;14.60;77.40;;;;;;4922385;29;20047;-75
2023/08/28 03:18:12;;;;;;;2.47;2.03;;;14.60;77.40;;;;;;4918248;29;20102;-75
2023/08/28 03:20:37;;;;;;;3.58;1.50;;;14.60;77.30;;;;;;4930921;29;20031;-75
2023/08/28 03:23:03;;;;;;;3.28;1.85;;;14.60;77.30;;;;;;4913876;29;20130;-75
2023/08/28 03:25:29;;;;;;;3.30;1.73;;;14.60;77.30;;;;;;4939159;29;20038;-75
2023/08/28 03:27:55;;;;;;;2.38;1.80;;;14.60;77.20;;;;;;4919331;29;20059;-75
2023/08/28 03:30:20;;;;;;;4.45;2.65;;;14.60;77.20;;;;;;4923422;29;20039;-74
2023/08/28 03:32:46;;;;;;;3.55;2.10;;;14.60;77.20;;;;;;4921762;29;20054;-75
2023/08/28 03:35:12;;;;;;;2.47;1.88;;;14.60;77.10;;;;;;4939538;29;20047;-75
2023/08/28 03:37:38;;;;;;;2.95;1.80;;;14.60;77.00;;;;;;4911401;29;20497;-75
2023/08/28 03:40:04;;;;;;;2.25;1.90;;;14.60;76.90;;;;;;4922930;29;20139;-75
2023/08/28 03:42:30;;;;;;;4.30;3.00;;;14.60;76.80;;;;;;4938320;29;20122;-75
2023/08/28 03:44:56;;;;;;;4.18;1.98;;;14.60;76.60;;;;;;4923371;29;20131;-75
2023/08/28 03:47:21;;;;;;;2.55;1.77;;;14.60;76.40;;;;;;4938805;29;20039;-75
2023/08/28 03:49:47;;;;;;;2.38;1.67;;;14.60;76.20;;;;;;4905598;29;20181;-76
2023/08/28 03:52:13;;;;;;;3.55;1.77;;;14.60;76.20;;;;;;4922455;29;20045;-76
2023/08/28 03:54:39;;;;;;;3.15;2.10;;;14.60;76.20;;;;;;4932670;29;20036;-76
2023/08/28 03:57:06;;;;;;;1.70;1.50;;;14.60;76.10;;;;;;4922757;29;20372;-76
2023/08/28 03:59:31;;;;;;;1.77;1.52;;;14.60;76.00;;;;;;4938904;29;20047;-76
2023/08/28 04:01:57;;;;;;;2.78;1.92;;;14.60;76.00;;;;;;4938634;29;20047;-76
2023/08/28 04:04:23;;;;;;;1.70;1.55;;;14.60;75.90;;;;;;4933837;29;20047;-76
2023/08/28 04:06:48;;;;;;;2.45;1.92;;;14.50;75.80;;;;;;4934657;29;20075;-76
2023/08/28 04:09:14;;;;;;;2.28;1.40;;;14.50;75.70;;;;;;4906295;29;20040;-76
2023/08/28 04:11:41;;;;;;;2.42;1.52;;;14.50;75.50;;;;;;4916922;29;20044;-76
2023/08/28 04:14:07;;;;;;;4.50;2.08;;;14.50;75.50;;;;;;4901025;29;20043;-76
2023/08/28 04:16:33;;;;;;;1.77;1.48;;;14.50;75.30;;;;;;4902617;29;20095;-76
2023/08/28 04:18:58;;;;;;;1.20;1.02;;;14.50;75.30;;;;;;4935348;29;20044;-76
2023/08/28 04:21:24;;;;;;;2.35;1.80;;;14.40;75.30;;;;;;4934970;29;20048;-77
2023/08/28 04:23:50;;;;;;;1.73;1.30;;;14.50;75.50;;;;;;4921649;29;20043;-76
2023/08/28 04:26:15;;;;;;;2.40;1.50;;;14.40;75.50;;;;;;4931363;29;20050;-76
2023/08/28 04:28:41;;;;;;;2.10;1.38;;;14.40;75.50;;;;;;4934986;29;20046;-76
2023/08/28 04:31:12;;;;;;;2.05;1.45;;;14.40;75.60;;;;;;4919282;29;20055;-75
2023/08/28 04:33:38;;;;;;;2.85;2.50;;;14.40;75.50;;;;;;4934354;29;20130;-75
2023/08/28 04:36:04;;;;;;;3.70;2.28;;;14.40;75.30;;;;;;4919211;29;20131;-75
2023/08/28 04:38:29;;;;;;;3.15;2.25;;;14.30;74.60;;;;;;4935290;29;20050;-75
2023/08/28 04:40:55;;;;;;;2.58;2.00;;;14.30;74.20;;;;;;4916820;29;20047;-75
2023/08/28 04:43:21;;;;;;;3.38;1.73;;;14.20;73.80;;;;;;4893161;29;20403;-76
2023/08/28 04:45:49;;;;;;;2.05;1.70;;;14.20;74.10;;;;;;4919415;29;20055;-76
2023/08/28 04:48:14;;;;;;;2.53;2.00;;;14.10;74.50;;;;;;4934750;29;20032;-75
2023/08/28 04:50:41;;;;;;;3.08;2.08;;;14.10;74.60;;;;;;4919130;29;20040;-76
2023/08/28 04:53:07;;;;;;;2.00;1.70;;;14.00;74.90;;;;;;4911911;29;20119;-75
2023/08/28 04:55:33;;;;;;;2.88;2.38;;;14.00;75.00;;;;;;4919437;29;20039;-76
2023/08/28 04:57:59;;;;;;;5.22;2.28;;;13.90;75.10;;;;;;4916784;29;20087;-75
2023/08/28 05:00:24;;;;;;;4.75;2.70;;;13.90;75.20;;;;;;4934295;29;20153;-75
2023/08/28 05:02:50;;;;;;;5.85;2.40;;;13.90;75.20;;;;;;4911683;29;20036;-76
2023/08/28 05:05:16;;;;;;;2.25;1.58;;;13.80;75.30;;;;;;4924095;29;20102;-76
2023/08/28 05:07:41;;;;;;;2.50;1.77;;;13.80;75.60;;;;;;4934439;29;20058;-76
2023/08/28 05:10:07;;;;;;;2.20;1.60;;;13.80;75.90;;;;;;4931835;29;20531;-76
2023/08/28 05:12:33;;;;;;;3.40;2.20;;;13.80;76.20;;;;;;4900870;29;20404;-76
2023/08/28 05:14:59;;;;;;;3.72;2.70;;;13.70;76.40;;;;;;4899887;29;20048;-76
2023/08/28 05:17:24;;;;;;;2.92;2.10;;;13.70;76.60;;;;;;4915567;29;20134;-76
2023/08/28 05:19:50;;;;;;;3.05;2.20;;;13.70;76.80;;;;;;4915461;29;20047;-76
2023/08/28 05:22:16;;;;;;;2.90;1.60;;;13.70;77.10;;;;;;4919069;29;20056;-75
2023/08/28 05:24:41;;;;;;;3.00;2.22;;;13.70;77.30;;;;;;4901015;29;20043;-76
2023/08/28 05:27:08;;;;;;;2.38;1.88;;;13.70;77.60;;;;;;4934367;29;20036;-76
2023/08/28 05:29:33;;;;;;;2.35;1.90;;;13.70;77.80;;;;;;4932392;29;20507;-75
2023/08/28 05:31:59;;;;;;;3.63;1.95;;;13.70;78.00;;;;;;4931756;29;20055;-76
2023/08/28 05:34:25;;;;;;;3.58;1.85;;;13.70;78.30;;;;;;4899490;29;20071;-76
2023/08/28 05:36:51;;;;;;;3.15;1.92;;;13.70;78.60;;;;;;4918952;29;20066;-75
2023/08/28 05:39:16;;;;;;;3.17;2.30;;;13.70;78.70;;;;;;4911098;29;20047;-76
2023/08/28 05:41:42;;;;;;;6.90;2.03;;;13.70;79.00;;;;;;4899472;29;20067;-76
2023/08/28 05:44:08;;;;;;;2.88;1.85;;;13.80;79.10;;;;;;4899768;29;20047;-76
2023/08/28 05:46:33;;;;;;;5.07;2.00;;;13.80;79.20;;;;;;4889866;29;20488;-76
2023/08/28 05:48:59;;;;;;;4.28;2.75;;;13.80;79.30;;;;;;4918255;29;20121;-76
2023/08/28 05:51:25;;;;;;;5.28;3.42;;;13.90;79.40;;;;;;4899950;29;20048;-76
2023/08/28 05:53:50;;;;;;;5.30;4.80;;;13.90;79.60;;;;;;4913642;29;20048;-76
2023/08/28 05:56:16;;;;;;;4.50;4.10;;;13.90;79.80;;;;;;4905178;29;20389;-76
2023/08/28 05:58:42;;;;;;;6.35;4.70;;;14.00;80.30;;;;;;4899131;29;20044;-76
2023/08/28 06:01:09;;;;;;;5.90;5.40;;;14.00;80.70;;;;;;4899395;29;20123;-76
2023/08/28 06:03:34;;;;;;;6.10;5.47;;;14.10;81.80;;;;;;4923604;29;20043;-76
2023/08/28 06:06:00;;;;;;;6.00;4.60;;;14.20;82.00;;;;;;4930552;29;20399;-76
2023/08/28 06:08:26;;;;;;;10.77;5.88;;;14.50;82.60;;;;;;4932974;29;20044;-76
2023/08/28 06:10:51;;;;;;;7.85;5.32;;;14.70;82.90;;;;;;4916629;29;20044;-76
2023/08/28 06:13:17;;;;;;;8.20;5.75;;;15.00;82.90;;;;;;4899456;29;20063;-76
2023/08/28 06:15:43;;;;;;;6.60;5.57;;;15.40;82.50;;;;;;4932907;29;20411;-76
2023/08/28 06:18:08;;;;;;;7.43;5.10;;;15.60;81.50;;;;;;4933911;29;20063;-76
2023/08/28 06:20:35;;;;;;;7.32;5.47;;;15.80;80.70;;;;;;4925399;29;20398;-75
2023/08/28 06:23:01;;;;;;;7.07;5.05;;;16.10;80.40;;;;;;4920484;29;20052;-76
2023/08/28 06:25:27;;;;;;;6.80;5.35;;;16.30;80.00;;;;;;4893414;29;20058;-75
2023/08/28 06:27:53;;;;;;;5.80;4.10;;;16.60;79.40;;;;;;4918621;29;20059;-76
2023/08/28 06:30:19;;;;;;;7.50;5.50;;;16.90;78.00;;;;;;4920864;29;20044;-76
2023/08/28 06:32:45;;;;;;;5.35;4.45;;;17.10;77.30;;;;;;4926463;29;20455;-76
2023/08/28 06:35:11;;;;;;;4.35;3.65;;;17.30;76.90;;;;;;4913200;29;20047;-76
2023/08/28 06:37:37;;;;;;;6.45;4.22;;;17.60;76.40;;;;;;4912158;29;20067;-76
2023/08/28 06:40:03;;;;;;;6.35;4.28;;;17.90;75.70;;;;;;4928556;29;20039;-76
2023/08/28 06:42:29;;;;;;;4.30;3.03;;;18.20;75.20;;;;;;4915591;29;20040;-76
2023/08/28 06:44:55;;;;;;;4.28;3.30;;;18.60;74.10;;;;;;4923406;29;20048;-76
2023/08/28 06:47:21;;;;;;;5.53;3.17;;;18.90;72.70;;;;;;4923285;29;20515;-76
2023/08/28 06:49:47;;;;;;;5.15;3.30;;;19.10;71.30;;;;;;4924954;29;20147;-76
2023/08/28 06:52:12;;;;;;;5.15;3.80;;;19.20;70.80;;;;;;4915166;29;20054;-76
2023/08/28 06:54:38;;;;;;;4.70;3.50;;;19.30;70.60;;;;;;4920189;29;20044;-76
2023/08/28 06:57:04;;;;;;;5.70;3.25;;;19.40;70.80;;;;;;4937086;29;20079;-76
2023/08/28 06:59:31;;;;;;;6.03;3.45;;;19.60;70.40;;;;;;4933894;29;20608;-76
2023/08/28 07:01:57;;;;;;;4.53;3.28;;;19.90;70.20;;;;;;4936178;29;20039;-76
2023/08/28 07:04:22;;;;;;;5.68;3.00;;;20.10;69.90;;;;;;4924618;29;20040;-76
2023/08/28 07:06:48;;;;;;;4.35;3.05;;;20.30;69.20;;;;;;4911122;29;20048;-76
2023/08/28 07:09:14;;;;;;;5.55;3.00;;;20.60;69.20;;;;;;4936765;29;20403;-76
2023/08/28 07:11:41;;;;;;;3.28;2.88;;;20.80;68.20;;;;;;4920923;29;20518;-76
2023/08/28 07:14:07;;;;;;;4.80;2.67;;;21.10;67.10;;;;;;4936536;29;20059;-76
2023/08/28 07:16:33;;;;;;;3.85;2.72;;;21.30;66.00;;;;;;4918912;29;20040;-76
2023/08/28 07:18:59;;;;;;;6.18;2.72;;;21.50;65.60;;;;;;4919868;29;20118;-76
2023/08/28 07:21:25;;;;;;;3.40;2.35;;;21.60;64.70;;;;;;4936286;29;20131;-77
2023/08/28 07:23:51;;;;;;;4.65;2.50;;;21.80;63.70;;;;;;4936362;29;20103;-77
2023/08/28 07:26:20;;;;;;;3.72;2.33;;;21.90;63.90;;;;;;4936465;29;20043;-77
2023/08/28 07:28:48;;;;;;;3.40;2.60;;;22.00;63.60;;;;;;4936267;29;20103;-77
2023/08/28 07:31:14;;;;;;;3.42;2.60;;;22.10;63.00;;;;;;4920744;29;20055;-77
2023/08/28 07:33:40;;;;;;;5.00;2.70;;;22.20;62.80;;;;;;4919815;29;20055;-77
2023/08/28 07:36:06;;;;;;;2.88;2.20;;;22.40;63.00;;;;;;4916100;29;20208;-76
2023/08/28 07:38:32;;;;;;;2.60;1.90;;;22.50;62.20;;;;;;4927782;29;20048;-77
2023/08/28 07:40:58;;;;;;;2.35;1.42;;;22.50;61.40;;;;;;4921691;29;20135;-77
2023/08/28 07:43:23;;;;;;;3.35;1.42;;;22.70;60.90;;;;;;4903951;29;20075;-76
2023/08/28 07:45:50;;;;;;;2.50;1.60;;;22.70;60.60;;;;;;4905326;29;20192;-77
2023/08/28 07:48:16;;;;;;;3.17;1.48;;;22.80;60.40;;;;;;4921300;29;20032;-77
2023/08/28 07:50:42;;;;;;;4.50;1.20;;;22.90;59.70;;;;;;4932779;29;20046;-77
2023/08/28 07:53:08;;;;;;;4.25;1.42;;;22.90;59.20;;;;;;4911258;29;20054;-77
2023/08/28 07:55:34;;;;;;;4.07;1.30;;;23.00;59.10;;;;;;4922907;29;20134;-77
2023/08/28 07:57:59;;;;;;;2.75;1.10;;;23.10;59.10;;;;;;4921897;29;20048;-77
2023/08/28 08:00:25;;;;;;;2.28;1.35;;;23.20;59.10;;;;;;4921210;29;20063;-77
2023/08/28 08:02:52;;;;;;;5.30;1.80;;;23.30;59.30;;;;;;4920090;29;20039;-77
2023/08/28 08:05:18;;;;;;;2.45;0.90;;;23.40;59.40;;;;;;4935556;29;20491;-77
2023/08/28 08:07:44;;;;;;;3.88;1.00;;;23.50;58.90;;;;;;4919781;29;20495;-77
2023/08/28 08:10:12;;;;;;;1.83;0.73;;;23.60;58.20;;;;;;4916451;29;20036;-77
2023/08/28 08:12:38;;;;;;;1.40;0.63;;;23.70;57.40;;;;;;4916920;29;20373;-77
2023/08/28 08:15:06;;;;;;;1.98;0.88;;;23.80;57.60;;;;;;4917194;29;20200;-77
2023/08/28 08:17:33;;;;;;;0.95;0.65;;;23.80;57.50;;;;;;4907226;29;20055;-77
2023/08/28 08:19:58;;;;;;;2.08;0.60;;;24.00;57.10;;;;;;4913143;29;20051;-77
2023/08/28 08:22:24;;;;;;;2.08;0.80;;;24.10;56.50;;;;;;4901597;29;20044;-77
2023/08/28 08:24:50;;;;;;;2.78;0.90;;;24.30;56.00;;;;;;4916412;29;20119;-77
2023/08/28 08:27:16;;;;;;;1.77;0.93;;;24.40;55.40;;;;;;4916295;29;20062;-77
2023/08/28 08:29:42;;;;;;;2.95;0.75;;;24.40;55.20;;;;;;4916203;29;20039;-77
2023/08/28 08:32:08;;;;;;;3.33;0.77;;;24.50;55.30;;;;;;4899952;29;20044;-77
2023/08/28 08:34:34;;;;;;;2.67;0.75;;;24.60;55.30;;;;;;4881759;29;20148;-77
2023/08/28 08:37:00;;;;;;;2.42;0.47;;;24.70;54.80;;;;;;4884969;29;20051;-77
2023/08/28 08:39:25;;;;;;;2.03;0.68;;;24.80;54.00;;;;;;4909298;29;20044;-77
2023/08/28 08:41:51;;;;;;;1.92;0.60;;;24.80;53.60;;;;;;4894610;29;20072;-77
2023/08/28 08:44:17;;;;;;;3.65;0.70;;;24.90;53.50;;;;;;4909269;29;20119;-77
2023/08/28 08:46:45;;;;;;;1.27;0.50;;;24.90;52.70;;;;;;4911009;29;20487;-77
2023/08/28 08:49:17;;;;;;;1.98;0.50;;;24.90;52.60;;;;;;4910203;29;20036;-78
2023/08/28 08:51:44;;;;;;;2.35;0.60;;;24.90;52.50;;;;;;4910576;29;20396;-77
2023/08/28 08:54:22;;;;;;;2.00;0.50;;;24.90;52.80;;;;;;4892712;29;20628;-77
2023/08/28 08:56:52;;;;;;;1.65;0.52;;;24.80;52.00;;;;;;4909664;29;20139;-77
2023/08/28 08:59:18;;;;;;;1.80;0.60;;;24.80;52.80;;;;;;4895276;29;20079;-77
2023/08/28 09:01:44;;;;;;;2.78;0.60;;;24.80;53.10;;;;;;4892781;29;20079;-78
2023/08/28 09:04:10;;;;;;;1.45;0.50;;;24.90;52.60;;;;;;4907125;29;20133;-77
2023/08/28 09:06:41;;;;;;;2.65;0.65;;;24.90;51.80;;;;;;4912869;29;20090;-77
2023/08/28 09:09:08;;;;;;;1.77;0.60;;;24.80;51.50;;;;;;4926263;29;21197;-77
2023/08/28 09:11:36;;;;;;;1.92;0.50;;;24.80;51.30;;;;;;4933723;29;20075;-77
2023/08/28 09:14:02;;;;;;;1.75;0.50;;;24.70;51.70;;;;;;4918935;29;20043;-77
2023/08/28 09:16:28;;;;;;;2.22;0.77;;;24.70;51.60;;;;;;4934864;29;20058;-77
2023/08/28 09:18:53;;;;;;;2.63;0.85;;;24.70;51.70;;;;;;4915768;29;20052;-77
2023/08/28 09:21:19;;;;;;;2.28;0.40;;;24.80;52.00;;;;;;4932383;29;20052;-77
2023/08/28 09:23:47;;;;;;;1.90;0.40;;;24.80;51.70;;;;;;4923273;29;20044;-77
2023/08/28 09:26:19;;;;;;;1.88;0.30;;;24.90;51.40;;;;;;4955870;29;20047;-77
2023/08/28 09:29:08;;;;;;;1.77;0.47;;;25.00;51.30;;;;;;4944958;29;20044;-79
2023/08/28 09:31:46;;;;;;;2.45;0.40;;;25.20;50.90;;;;;;4937400;29;20044;-79
2023/08/28 09:34:13;;;;;;;2.95;0.88;;;25.30;50.50;;;;;;4937070;29;20402;-80
2023/08/28 09:36:42;;;;;;;1.75;0.50;;;25.40;50.40;;;;;;4961239;29;20114;-78
2023/08/28 09:39:08;;;;;;;2.83;0.93;;;25.60;50.30;;;;;;4929714;29;20048;-78
2023/08/28 09:41:44;;;;;;;2.78;0.82;;;25.60;49.70;;;;;;4944977;29;20040;-79
2023/08/28 09:44:10;;;;;;;2.20;0.55;;;25.70;49.50;;;;;;4929241;29;20032;-77
2023/08/28 09:46:37;;;;;;;2.53;0.43;;;25.70;48.90;;;;;;4944287;29;20086;-77
2023/08/28 09:49:04;;;;;;;1.30;0.40;;;25.60;48.20;;;;;;4944027;29;20044;-78
2023/08/28 09:51:43;;;;;;;2.72;0.52;;;25.60;48.80;;;;;;4944419;29;20519;-77
2023/08/28 09:54:10;;;;;;;0.65;0.40;;;25.60;49.80;;;;;;4944622;29;20399;-77
2023/08/28 09:56:37;;;;;;;1.20;0.40;;;25.50;48.90;;;;;;4940824;29;20058;-75
2023/08/28 09:59:03;;;;;;;0.82;0.40;;;25.60;47.80;;;;;;4927250;29;20044;-75
2023/08/28 10:01:34;;;;;;;2.00;0.60;;;25.60;46.00;;;;;;4918652;29;20124;-75
2023/08/28 10:04:10;;;;;;;0.95;0.50;;;25.60;47.00;;;;;;4937451;29;20043;-76
2023/08/28 10:06:52;;;;;;;3.83;0.70;;;25.70;47.70;;;;;;4918091;29;20065;-76
2023/08/28 10:09:21;;;;;;;1.42;0.43;;;25.70;47.70;;;;;;4923427;29;20040;-76
2023/08/28 10:11:48;;;;;;;1.50;0.57;;;25.80;48.60;;;;;;4915365;29;20052;-75
2023/08/28 10:14:15;;;;;;;1.60;0.50;;;25.90;48.50;;;;;;4914054;29;20065;-75
2023/08/28 10:16:50;;;;;;;2.83;0.60;;;26.00;48.50;;;;;;4913088;29;20044;-75
2023/08/28 10:19:27;;;;;;;1.52;0.40;;;26.10;48.80;;;;;;4897038;29;20056;-76
2023/08/28 10:21:54;;;;;;;1.75;0.55;;;26.10;48.00;;;;;;4895725;29;20141;-76
2023/08/28 10:24:20;;;;;;;1.17;0.43;;;26.10;47.10;;;;;;4896074;29;20044;-74
2023/08/28 10:26:47;;;;;;;1.23;0.50;;;26.10;46.70;;;;;;4910623;29;20040;-75
2023/08/28 10:29:17;;;;;;;1.75;0.38;;;26.00;45.30;;;;;;4909858;29;20039;-75
2023/08/28 10:31:43;;;;;;;0.75;0.32;;;26.00;45.60;;;;;;4910214;29;20119;-75
2023/08/28 10:34:10;;;;;;;0.70;0.40;;;26.00;46.30;;;;;;4882033;29;20044;-76
2023/08/28 10:36:36;;;;;;;1.85;0.40;;;26.00;47.30;;;;;;4895094;29;20048;-75
2023/08/28 10:39:03;;;;;;;2.92;0.50;;;26.10;48.30;;;;;;4895846;29;20132;-75
2023/08/28 10:41:30;;;;;;;1.23;0.40;;;25.90;48.10;;;;;;4910786;29;20108;-76
2023/08/28 10:43:58;;;;;;;1.10;0.45;;;25.90;48.00;;;;;;4881259;29;20400;-75
2023/08/28 10:46:27;;;;;;;0.63;0.40;;;25.80;47.90;;;;;;4894306;29;20044;-75
2023/08/28 10:48:58;;;;;;;1.17;0.30;;;25.80;47.80;;;;;;4909385;29;20037;-76
2023/08/28 10:51:37;;;;;;;1.95;0.60;;;25.70;47.50;;;;;;4909672;29;20047;-76
2023/08/28 10:54:07;;;;;;;1.60;0.30;;;25.60;47.00;;;;;;4895923;29;20568;-76
2023/08/28 10:56:35;;;;;;;0.77;0.47;;;25.40;46.70;;;;;;4911527;29;20087;-76
2023/08/28 10:59:23;;;;;;;0.60;0.30;;;25.30;46.80;;;;;;4911264;29;20083;-76
2023/08/28 11:01:57;;;;;;;1.45;0.40;;;25.20;47.60;;;;;;4909678;29;20055;-76
2023/08/28 11:04:31;;;;;;;0.50;0.28;;;25.00;47.30;;;;;;4910660;29;20048;-76
2023/08/28 11:06:57;;;;;;;0.80;0.25;;;24.90;47.60;;;;;;4902660;29;20484;-76
2023/08/28 11:09:29;;;;;;;2.42;0.70;;;24.80;48.00;;;;;;4914736;29;20074;-76
2023/08/28 11:11:57;;;;;;;1.65;0.50;;;24.80;47.90;;;;;;4913377;29;20043;-76
2023/08/28 11:14:52;;;;;;;1.00;0.40;;;24.60;47.80;;;;;;4916019;29;20095;-76
2023/08/28 11:17:20;;;;;;;0.95;0.43;;;24.40;48.40;;;;;;4938510;29;20057;-76
2023/08/28 11:19:55;;;;;;;1.23;0.40;;;24.40;48.40;;;;;;4927788;29;20047;-76
2023/08/28 11:22:47;;;;;;;1.25;0.57;;;24.20;48.70;;;;;;4912376;29;20152;-76
2023/08/28 11:25:34;;;;;;;1.17;0.38;;;24.10;49.10;;;;;;4909723;29;20044;-76
2023/08/28 11:28:00;;;;;;;1.35;0.50;;;24.00;49.40;;;;;;4929478;29;20063;-76
2023/08/28 11:30:26;;;;;;;1.27;0.50;;;23.90;49.80;;;;;;4928214;29;20051;-76
2023/08/28 11:32:53;;;;;;;0.70;0.50;;;23.80;50.00;;;;;;4928710;29;20047;-76
2023/08/28 11:35:20;;;;;;;1.58;0.73;;;23.70;50.10;;;;;;4927526;29;20054;-76
2023/08/28 11:37:51;;;;;;;0.85;0.47;;;23.70;50.30;;;;;;4928610;29;20050;-76
2023/08/28 11:40:19;;;;;;;1.30;0.40;;;23.60;50.50;;;;;;4929591;29;20052;-76
2023/08/28 11:42:47;;;;;;;1.42;0.55;;;23.50;50.90;;;;;;4928162;29;20082;-76
2023/08/28 11:45:23;;;;;;;1.58;0.55;;;23.50;51.00;;;;;;4927690;29;20040;-76
2023/08/28 11:47:49;;;;;;;1.23;0.50;;;23.40;51.20;;;;;;4928317;29;20128;-76
2023/08/28 11:50:18;;;;;;;1.95;0.60;;;23.30;51.60;;;;;;4898428;29;20122;-76
2023/08/28 11:52:48;;;;;;;2.15;0.63;;;23.30;51.80;;;;;;4928351;29;20087;-76
2023/08/28 11:55:14;;;;;;;2.88;0.70;;;23.20;51.60;;;;;;4925871;29;20055;-76
2023/08/28 11:57:40;;;;;;;2.55;0.90;;;23.20;51.60;;;;;;4922569;29;20048;-76
2023/08/28 12:00:11;;;;;;;1.15;0.60;;;23.10;51.60;;;;;;4910859;29;20040;-76
2023/08/28 12:02:38;;;;;;;0.90;0.43;;;23.10;51.70;;;;;;4923970;29;20071;-76
2023/08/28 12:05:04;;;;;;;1.85;0.85;;;23.10;52.10;;;;;;4920678;29;20083;-76
2023/08/28 12:07:30;;;;;;;2.60;0.95;;;23.10;52.30;;;;;;4894982;29;20064;-76
2023/08/28 12:09:58;;;;;;;1.30;0.60;;;23.10;53.00;;;;;;4904959;29;20099;-76
2023/08/28 12:12:26;;;;;;;3.05;1.00;;;23.10;53.20;;;;;;4919358;29;20130;-75
2023/08/28 12:14:53;;;;;;;1.88;0.77;;;23.10;53.10;;;;;;4903123;29;20601;-76
2023/08/28 12:17:23;;;;;;;0.85;0.50;;;23.20;53.00;;;;;;4901796;29;20036;-76
2023/08/28 12:19:50;;;;;;;3.17;0.85;;;23.30;53.10;;;;;;4904108;29;20047;-76
2023/08/28 12:22:17;;;;;;;2.13;0.60;;;23.40;52.80;;;;;;4901824;29;20044;-76
2023/08/28 12:24:44;;;;;;;0.90;0.60;;;23.50;52.40;;;;;;4904121;29;20448;-76
2023/08/28 12:27:11;;;;;;;2.22;0.98;;;23.60;52.50;;;;;;4902402;29;20036;-76
2023/08/28 12:29:38;;;;;;;1.30;0.60;;;23.60;52.70;;;;;;4886245;29;20135;-76
2023/08/28 12:32:06;;;;;;;2.08;0.60;;;23.70;52.60;;;;;;4901851;29;20080;-76
2023/08/28 12:34:37;;;;;;;1.98;0.70;;;23.80;52.10;;;;;;4888632;29;20055;-76
2023/08/28 12:37:13;;;;;;;1.27;0.63;;;23.90;52.20;;;;;;4918697;29;20052;-76
2023/08/28 12:39:50;;;;;;;1.58;0.68;;;23.90;52.00;;;;;;4903321;29;20070;-75
2023/08/28 12:42:21;;;;;;;2.17;0.93;;;24.00;52.50;;;;;;4901653;29;20095;-76
2023/08/28 12:44:47;;;;;;;2.92;0.85;;;24.10;52.50;;;;;;4902898;29;20056;-78
2023/08/28 12:47:17;;;;;;;2.20;0.70;;;24.10;52.60;;;;;;4901363;29;20032;-77
2023/08/28 12:49:43;;;;;;;2.10;0.85;;;24.20;52.30;;;;;;4916180;29;20112;-77